Time;durP1;ratioP1;P1;durP2;ratioP2;P2;SDS_P1;SDS_P2;PMS_P1;PMS_P2;Temp;Humidity;BMP_temperature;BMP_pressure;BME280_temperature;BME280_humidity;BME280_pressure;Samples;Min_cycle;Max_cycle;Signal;HPM_P1;HPM_P2
2022/05/24 00:01:34;;;;;;;9.23;1.20;;;16.60;99.90;;;16.13;100.00;96176.94;4972029;28;20696;-41
2022/05/24 00:03:59;;;;;;;10.02;1.10;;;16.40;99.90;;;16.02;100.00;96177.78;4970964;28;20034;-42
2022/05/24 00:06:32;;;;;;;10.65;0.80;;;16.30;99.90;;;15.94;100.00;96179.34;4969946;28;20027;-41
2022/05/24 00:08:58;;;;;;;4.88;1.00;;;16.30;99.90;;;15.78;100.00;96169.91;4973296;28;20418;-42
2022/05/24 00:11:24;;;;;;;7.13;1.17;;;16.20;99.90;;;15.76;100.00;96187.78;4972660;28;20131;-41
2022/05/24 00:13:50;;;;;;;3.67;1.02;;;16.10;99.90;;;15.69;100.00;96194.50;4964009;28;20034;-41
2022/05/24 00:16:17;;;;;;;9.02;0.90;;;16.00;99.90;;;15.56;100.00;96194.59;4944352;28;20124;-41
2022/05/24 00:18:42;;;;;;;7.45;1.08;;;15.90;99.90;;;15.52;100.00;96202.91;4964841;28;20834;-41
2022/05/24 00:21:08;;;;;;;13.93;1.35;;;15.80;99.90;;;15.43;100.00;96199.13;4965374;28;20034;-40
2022/05/24 00:23:34;;;;;;;1.13;0.80;;;15.80;99.90;;;15.41;100.00;96195.75;4971266;28;20027;-41
2022/05/24 00:26:05;;;;;;;1.73;0.90;;;15.70;99.90;;;15.36;100.00;96188.16;4965416;28;20540;-41
2022/05/24 00:28:33;;;;;;;3.40;0.90;;;15.60;99.90;;;15.33;100.00;96199.00;4957058;28;20042;-42
2022/05/24 00:31:00;;;;;;;2.38;1.02;;;15.60;99.90;;;15.30;100.00;96196.56;4977806;28;20061;-41
2022/05/24 00:33:26;;;;;;;1.95;1.00;;;15.60;99.90;;;15.18;100.00;96178.88;4972864;28;20214;-45
2022/05/24 00:35:53;;;;;;;1.83;0.88;;;15.50;99.90;;;15.20;100.00;96195.53;4964290;28;20346;-41
2022/05/24 00:38:28;;;;;;;2.08;0.80;;;15.50;99.90;;;15.20;100.00;96188.44;4971531;28;20146;-41
2022/05/24 00:41:25;;;;;;;1.15;0.80;;;15.40;99.90;;;15.07;100.00;96188.53;4958364;28;20399;-42
2022/05/24 00:44:15;;;;;;;4.10;1.10;;;15.40;99.90;;;15.00;100.00;96187.28;4963227;28;20723;-42
2022/05/24 00:47:09;;;;;;;2.70;1.10;;;15.30;99.90;;;14.96;100.00;96180.47;4975928;28;20362;-41
2022/05/24 00:49:41;;;;;;;1.70;0.80;;;15.20;99.90;;;14.90;100.00;96178.28;4957324;28;20483;-41
2022/05/24 00:52:13;;;;;;;1.40;0.80;;;15.20;99.90;;;14.86;100.00;96176.84;4963173;28;20046;-42
2022/05/24 00:54:40;;;;;;;1.23;0.80;;;15.10;99.90;;;14.84;100.00;96171.63;4971452;28;20034;-41
2022/05/24 00:57:35;;;;;;;1.13;0.77;;;15.10;99.90;;;14.61;100.00;96130.03;4970168;28;20069;-41
2022/05/24 01:00:14;;;;;;;0.77;0.68;;;15.10;99.90;;;14.77;100.00;96161.56;4967073;28;20894;-41
2022/05/24 01:02:44;;;;;;;0.63;0.63;;;15.10;99.90;;;14.71;100.00;96178.78;4970451;28;20302;-41
2022/05/24 01:05:24;;;;;;;1.27;0.77;;;15.10;99.90;;;14.68;100.00;96197.59;4970010;28;20125;-41
2022/05/24 01:07:49;;;;;;;0.73;0.73;;;15.00;99.90;;;14.69;100.00;96189.50;4972357;28;20038;-41
2022/05/24 01:10:24;;;;;;;0.75;0.70;;;15.00;99.90;;;14.74;100.00;96180.38;4974417;28;20065;-41
2022/05/24 01:13:02;;;;;;;1.05;0.85;;;15.00;99.90;;;14.76;100.00;96178.47;4970927;28;20592;-41
2022/05/24 01:15:28;;;;;;;1.85;0.77;;;15.10;99.90;;;14.78;100.00;96176.53;4957779;28;20110;-41
2022/05/24 01:17:55;;;;;;;0.63;0.60;;;15.10;99.90;;;14.78;100.00;96176.53;4970630;28;20046;-41
2022/05/24 01:20:25;;;;;;;0.80;0.60;;;15.10;99.90;;;14.80;100.00;96169.31;4970975;28;20043;-41
2022/05/24 01:23:27;;;;;;;0.47;0.47;;;15.10;99.90;;;14.81;100.00;96176.31;4967738;28;20038;-42
2022/05/24 01:26:25;;;;;;;1.15;0.80;;;15.10;99.90;;;14.75;100.00;96174.97;4953633;28;20338;-41
2022/05/24 01:29:02;;;;;;;0.60;0.60;;;15.10;99.90;;;14.75;100.00;96168.78;4956696;28;20153;-41
2022/05/24 01:36:58;;;;;;;2.85;0.75;;;14.90;99.90;;;14.54;100.00;96171.19;4960417;28;20325;-42
2022/05/24 01:39:24;;;;;;;0.50;0.50;;;14.80;99.90;;;14.49;100.00;96171.50;4974358;28;22465;-42
2022/05/24 01:41:51;;;;;;;1.55;0.57;;;14.80;99.90;;;14.46;100.00;96169.06;4972932;28;20057;-41
2022/05/24 01:44:25;;;;;;;0.95;0.70;;;14.80;99.90;;;14.48;100.00;96175.09;4976044;28;20128;-41
2022/05/24 01:46:51;;;;;;;1.00;0.70;;;14.70;99.90;;;14.43;100.00;96167.50;4951924;28;20409;-42
2022/05/24 01:49:25;;;;;;;1.30;0.70;;;14.70;99.90;;;14.42;100.00;96164.94;4978937;28;20030;-41
2022/05/24 01:52:21;;;;;;;0.60;0.60;;;14.70;99.90;;;14.32;100.00;96160.31;4952847;28;20100;-41
2022/05/24 01:54:52;;;;;;;0.50;0.50;;;14.60;99.90;;;14.18;100.00;96155.16;4954910;28;20502;-41
2022/05/24 01:57:26;;;;;;;0.60;0.60;;;14.50;99.90;;;14.13;100.00;96154.63;4975096;28;20105;-42
2022/05/24 01:59:56;;;;;;;0.93;0.73;;;14.40;99.90;;;14.06;100.00;96156.03;4973084;28;20489;-41
2022/05/24 02:02:21;;;;;;;0.60;0.60;;;14.40;99.90;;;14.00;100.00;96148.47;4955801;28;20113;-41
2022/05/24 02:04:47;;;;;;;1.30;0.70;;;14.30;99.90;;;13.94;100.00;96152.41;4977722;28;20018;-41
2022/05/24 02:07:17;;;;;;;0.85;0.70;;;14.20;99.90;;;13.88;100.00;96148.41;4974755;28;20486;-41
2022/05/24 02:09:47;;;;;;;1.42;0.70;;;14.10;99.90;;;13.84;100.00;96148.75;4971900;28;20038;-41
2022/05/24 02:12:37;;;;;;;0.70;0.70;;;14.10;99.90;;;13.81;100.00;96170.97;4976275;28;20042;-41
2022/05/24 02:15:14;;;;;;;0.82;0.70;;;14.10;99.90;;;13.80;100.00;96176.38;4978144;28;20034;-41
2022/05/24 02:18:04;;;;;;;1.55;0.80;;;14.10;99.90;;;13.77;100.00;96173.97;4959450;28;20030;-41
2022/05/24 02:20:34;;;;;;;0.98;0.88;;;14.00;99.90;;;13.76;100.00;96173.09;4972845;28;21002;-41
2022/05/24 02:23:00;;;;;;;0.70;0.70;;;14.00;99.90;;;13.74;100.00;96165.25;4979034;28;20034;-42
2022/05/24 02:25:40;;;;;;;0.70;0.70;;;14.00;99.90;;;13.57;100.00;96141.75;4975092;28;20045;-41
2022/05/24 02:28:09;;;;;;;0.68;0.68;;;14.00;99.90;;;13.73;100.00;96163.56;4956697;28;20030;-41
2022/05/24 02:30:40;;;;;;;0.95;0.90;;;14.00;99.90;;;13.73;100.00;96165.38;4975163;28;20490;-41
2022/05/24 02:33:06;;;;;;;0.93;0.70;;;14.00;99.90;;;13.72;100.00;96155.72;4976843;28;20195;-41
2022/05/24 02:35:32;;;;;;;0.95;0.80;;;14.00;99.90;;;13.72;100.00;96156.56;4973006;28;20272;-41
2022/05/24 02:37:58;;;;;;;0.80;0.80;;;14.00;99.90;;;13.70;100.00;96157.63;4976779;28;20052;-41
2022/05/24 02:43:08;;;;;;;0.73;0.60;;;14.00;99.90;;;13.74;100.00;96148.53;4970095;28;20069;-41
2022/05/24 02:45:33;;;;;;;0.85;0.80;;;14.00;99.90;;;13.76;100.00;96149.25;4974405;28;20027;-41
2022/05/24 02:47:59;;;;;;;1.38;0.73;;;14.00;99.90;;;13.78;100.00;96147.34;4975099;28;20480;-41
2022/05/24 02:50:26;;;;;;;0.75;0.70;;;14.00;99.90;;;13.80;100.00;96132.22;4978897;28;20030;-41
2022/05/24 02:52:52;;;;;;;0.80;0.80;;;14.10;99.90;;;13.83;100.00;96142.56;4971094;28;20043;-41
2022/05/24 02:55:19;;;;;;;0.80;0.77;;;14.10;99.90;;;13.84;100.00;96141.63;4969287;28;20030;-41
2022/05/24 02:57:44;;;;;;;1.08;0.80;;;14.10;99.90;;;13.86;100.00;96141.53;4970726;28;20140;-41
2022/05/24 03:00:15;;;;;;;0.80;0.80;;;14.10;99.90;;;13.87;100.00;96141.44;4975369;28;20196;-41
2022/05/24 03:02:41;;;;;;;1.10;0.60;;;14.20;99.90;;;13.90;100.00;96135.88;4971607;28;20116;-41
2022/05/24 03:05:10;;;;;;;4.22;0.82;;;14.20;99.90;;;13.77;100.00;96099.78;4973685;28;20438;-41
2022/05/24 03:10:21;;;;;;;0.73;0.73;;;14.20;99.90;;;13.96;100.00;96147.00;4974209;28;20473;-41
2022/05/24 03:15:31;;;;;;;1.67;0.73;;;14.20;99.90;;;13.95;100.00;96138.22;4972756;28;20085;-41
2022/05/24 03:17:57;;;;;;;1.65;0.98;;;14.20;99.90;;;13.96;100.00;96152.31;4977496;28;20536;-41
2022/05/24 03:20:23;;;;;;;0.90;0.80;;;14.30;99.90;;;13.95;100.00;96151.47;4969852;28;20043;-42
2022/05/24 03:22:48;;;;;;;1.10;0.80;;;14.20;99.90;;;13.96;100.00;96147.00;5011505;23;20140;-39
2022/05/24 03:25:14;;;;;;;0.73;0.60;;;14.20;99.90;;;13.98;100.00;96158.34;5025585;28;20064;-38
2022/05/24 03:27:40;;;;;;;0.70;0.70;;;14.30;99.90;;;13.99;100.00;96157.41;5025989;28;20566;-39
2022/05/24 03:30:07;;;;;;;0.75;0.75;;;14.30;99.90;;;13.96;100.00;96149.66;5027703;28;20040;-39
2022/05/24 03:32:33;;;;;;;0.95;0.90;;;14.30;99.90;;;14.03;100.00;96150.94;5027046;28;20074;-39
2022/05/24 03:35:06;;;;;;;1.23;1.13;;;14.30;99.90;;;14.08;100.00;96167.34;5026173;28;20053;-39
2022/05/24 03:37:32;;;;;;;1.88;1.00;;;14.40;99.90;;;14.12;100.00;96166.19;5014953;28;20252;-39
2022/05/24 03:39:58;;;;;;;1.40;1.05;;;14.40;99.90;;;14.14;100.00;96164.28;5026255;28;20041;-38
2022/05/24 03:42:24;;;;;;;1.42;1.13;;;14.50;99.90;;;14.17;100.00;96174.66;5034885;28;20489;-38
2022/05/24 03:44:50;;;;;;;1.55;1.00;;;14.50;99.90;;;14.18;100.00;96180.81;5031900;28;20032;-38
2022/05/24 03:47:15;;;;;;;1.00;0.90;;;14.50;99.90;;;14.18;100.00;96171.06;5030554;28;20412;-39
2022/05/24 03:49:41;;;;;;;2.55;0.93;;;14.50;99.90;;;14.20;100.00;96165.66;5028826;28;20119;-39
2022/05/24 03:52:07;;;;;;;1.25;0.80;;;14.50;99.90;;;14.20;100.00;96157.69;5025765;28;20542;-39
2022/05/24 03:54:33;;;;;;;0.98;0.90;;;14.50;99.90;;;14.28;100.00;96163.28;5029998;28;20553;-38
2022/05/24 03:59:44;;;;;;;0.77;0.70;;;14.60;99.90;;;14.37;100.00;96169.75;5032036;28;20101;-38
2022/05/24 04:02:10;;;;;;;1.38;0.90;;;14.60;99.90;;;14.36;100.00;96165.41;5028297;28;20488;-39
2022/05/24 04:04:36;;;;;;;0.63;0.63;;;14.70;99.90;;;14.43;100.00;96175.47;5024788;28;20422;-38
2022/05/24 04:07:01;;;;;;;1.23;0.75;;;14.70;99.90;;;14.37;100.00;96156.47;5027427;28;20091;-39
2022/05/24 04:09:27;;;;;;;1.00;0.60;;;14.70;99.90;;;14.42;100.00;96159.66;5027074;28;20397;-38
2022/05/24 04:11:54;;;;;;;1.67;0.82;;;14.70;99.90;;;14.48;100.00;96175.09;5027243;28;20647;-39
2022/05/24 04:14:20;;;;;;;0.68;0.68;;;14.80;99.90;;;14.52;100.00;96176.59;5028346;28;20041;-39
2022/05/24 04:16:46;;;;;;;0.60;0.60;;;14.80;99.90;;;14.52;100.00;96169.47;5030139;28;20064;-40
2022/05/24 04:19:12;;;;;;;0.50;0.50;;;14.80;99.90;;;14.55;100.00;96152.47;5030649;28;20075;-40
2022/05/24 04:21:37;;;;;;;0.60;0.60;;;14.80;99.90;;;14.60;100.00;96149.53;5029711;28;20067;-39
2022/05/24 04:24:04;;;;;;;0.75;0.60;;;14.90;99.90;;;14.45;100.00;96130.25;5022386;28;20036;-39
2022/05/24 04:26:30;;;;;;;1.25;0.60;;;14.90;99.90;;;14.62;100.00;96192.72;5029188;28;20033;-39
2022/05/24 04:28:56;;;;;;;0.65;0.52;;;14.90;99.90;;;14.65;100.00;96188.03;5028024;28;20091;-39
2022/05/24 04:31:22;;;;;;;1.95;0.60;;;14.90;99.90;;;14.74;100.00;96191.00;5030673;28;20036;-39
2022/05/24 04:33:48;;;;;;;0.90;0.90;;;15.00;99.90;;;14.83;100.00;96191.16;5024534;28;20611;-39
2022/05/24 04:36:13;;;;;;;0.85;0.70;;;15.10;99.90;;;14.93;100.00;96187.81;5022084;28;20035;-39
2022/05/24 04:38:39;;;;;;;0.73;0.60;;;15.20;99.90;;;15.04;100.00;96164.84;5031705;28;20047;-39
2022/05/24 04:43:49;;;;;;;1.00;0.60;;;15.50;99.90;;;15.32;100.00;96193.78;5033719;28;20416;-39
2022/05/24 04:46:15;;;;;;;0.70;0.70;;;15.60;99.90;;;15.34;100.00;96195.34;5033487;28;20036;-39
2022/05/24 04:48:40;;;;;;;0.90;0.75;;;15.60;99.90;;;15.34;100.00;96205.97;5033817;28;20048;-39
2022/05/24 04:51:06;;;;;;;0.50;0.40;;;15.60;99.90;;;15.34;100.00;96213.13;5029918;28;20033;-39
2022/05/24 04:53:32;;;;;;;1.55;0.65;;;15.60;99.90;;;15.33;100.00;96206.97;5030680;28;20064;-39
2022/05/24 04:55:57;;;;;;;0.50;0.50;;;15.60;99.90;;;15.33;100.00;96217.59;5030491;28;20122;-39
2022/05/24 04:58:23;;;;;;;1.40;0.70;;;15.60;99.90;;;15.33;100.00;96230.03;5027570;28;20032;-39
2022/05/24 05:00:50;;;;;;;0.63;0.50;;;15.60;99.90;;;15.32;100.00;96229.16;5031376;28;20108;-39
2022/05/24 05:03:18;;;;;;;1.08;0.73;;;15.60;99.90;;;15.32;100.00;96228.31;5024342;28;20483;-39
2022/05/24 05:05:46;;;;;;;0.77;0.60;;;15.60;99.90;;;15.33;100.00;96222.91;5034068;28;20033;-39
2022/05/24 05:08:12;;;;;;;2.53;0.73;;;15.60;99.90;;;15.39;100.00;96214.44;5029469;28;20044;-39
2022/05/24 05:10:38;;;;;;;2.13;0.77;;;15.70;99.90;;;15.54;100.00;96217.78;5026063;28;20372;-39
2022/05/24 05:13:07;;;;;;;1.38;0.70;;;15.80;99.90;;;15.78;100.00;96212.44;5029036;28;20029;-39
2022/05/24 05:15:34;;;;;;;2.30;1.00;;;16.00;99.90;;;15.96;100.00;96217.31;5029308;28;20407;-39
2022/05/24 05:18:10;;;;;;;0.80;0.75;;;16.20;99.90;;;16.06;100.00;96212.09;5029342;28;20281;-39
2022/05/24 05:20:41;;;;;;;1.98;0.60;;;16.30;99.90;;;16.07;100.00;96208.50;5034225;28;20033;-39
2022/05/24 05:23:10;;;;;;;1.10;0.88;;;16.30;99.90;;;16.05;100.00;96213.91;5033460;28;20033;-39
2022/05/24 05:25:37;;;;;;;3.83;1.17;;;16.30;99.90;;;15.95;100.00;96231.53;5031383;28;20560;-39
2022/05/24 05:28:03;;;;;;;1.90;0.90;;;16.30;99.90;;;15.93;100.00;96228.16;5033822;28;20037;-39
2022/05/24 05:33:15;;;;;;;2.60;1.55;;;16.30;99.90;;;16.11;100.00;96232.03;5038065;28;20410;-39
2022/05/24 05:35:46;;;;;;;3.45;1.08;;;16.40;99.90;;;16.32;100.00;96249.97;5037447;28;20040;-39
2022/05/24 05:38:12;;;;;;;1.98;1.10;;;16.60;99.90;;;16.49;100.00;96252.16;5038591;28;20156;-39
2022/05/24 05:40:38;;;;;;;2.05;1.10;;;16.80;99.90;;;16.70;100.00;96256.72;5037409;28;20436;-39
2022/05/24 05:43:04;;;;;;;4.50;1.10;;;17.00;99.90;;;16.77;100.00;96252.59;5038904;28;20315;-39
2022/05/24 05:45:29;;;;;;;2.22;1.02;;;17.10;99.90;;;16.87;100.00;96256.28;5033636;28;20029;-39
2022/05/24 05:47:55;;;;;;;1.55;1.17;;;17.10;99.90;;;17.00;100.00;96249.97;5036022;28;20425;-39
2022/05/24 05:50:22;;;;;;;2.78;1.23;;;17.20;99.90;;;16.91;100.00;96248.88;5029687;28;20033;-39
2022/05/24 05:52:49;;;;;;;1.60;1.00;;;17.20;99.90;;;16.92;100.00;96246.09;5037685;28;20033;-39
2022/05/24 05:55:15;;;;;;;4.43;1.00;;;17.20;99.90;;;16.83;100.00;96252.13;5033001;28;20555;-39
2022/05/24 05:57:41;;;;;;;2.25;0.98;;;17.20;99.90;;;16.78;100.00;96254.31;5030043;28;20048;-39
2022/05/24 06:00:09;;;;;;;5.38;1.10;;;17.10;99.90;;;16.73;100.00;96254.66;5032650;28;20036;-39
2022/05/24 06:02:38;;;;;;;2.35;1.05;;;17.00;99.90;;;16.63;100.00;96264.34;5034036;28;20036;-39
2022/05/24 06:05:05;;;;;;;3.72;0.98;;;16.90;99.90;;;16.60;100.00;96269.94;5028545;28;20490;-39
2022/05/24 06:07:32;;;;;;;2.20;1.15;;;16.80;99.90;;;16.68;100.00;96272.81;5036200;28;20040;-39
2022/05/24 06:09:58;;;;;;;2.33;1.02;;;16.80;99.90;;;16.78;100.00;96278.28;5039294;28;20116;-39
2022/05/24 06:12:25;;;;;;;3.13;1.08;;;16.90;99.90;;;17.00;100.00;96272.09;5035186;28;20052;-39
2022/05/24 06:14:51;;;;;;;2.30;1.00;;;17.10;99.90;;;17.26;100.00;96271.78;5030004;28;20040;-39
2022/05/24 06:17:17;;;;;;;1.65;0.95;;;17.40;99.90;;;17.40;100.00;96270.66;5033682;28;20408;-39
2022/05/24 06:19:44;;;;;;;1.65;1.00;;;17.60;99.90;;;17.52;99.30;96269.66;5034809;28;20033;-39
2022/05/24 06:22:10;;;;;;;5.22;1.10;;;17.70;99.90;;;17.64;93.49;96265.09;5035748;28;20052;-39
2022/05/24 06:24:37;;;;;;;2.45;1.60;;;17.90;99.90;;;17.70;92.38;96265.44;5040485;28;20049;-39
2022/05/24 06:27:04;;;;;;;2.17;1.50;;;18.00;99.90;;;17.82;92.55;96273.38;5033613;28;20116;-39
2022/05/24 06:29:33;;;;;;;3.60;1.15;;;18.00;99.90;;;17.87;91.51;96272.06;5036141;28;20029;-39
2022/05/24 06:32:01;;;;;;;2.70;1.17;;;18.10;99.90;;;17.94;90.96;96269.72;5033209;28;20536;-39
2022/05/24 06:34:29;;;;;;;3.53;1.05;;;18.20;99.90;;;17.93;87.94;96270.69;5032537;28;20068;-39
2022/05/24 06:36:56;;;;;;;2.85;0.82;;;18.30;99.90;;;18.01;87.51;96284.22;5035859;28;20572;-39
2022/05/24 06:39:22;;;;;;;5.13;1.10;;;18.30;99.90;;;18.05;87.53;96293.69;5032122;28;20044;-39
2022/05/24 06:41:48;;;;;;;2.95;1.10;;;18.30;99.90;;;18.07;88.69;96299.72;5034705;28;20029;-39
2022/05/24 06:44:14;;;;;;;3.58;1.15;;;18.30;99.90;;;18.18;88.98;96300.59;5033660;28;20562;-39
2022/05/24 06:46:40;;;;;;;3.15;0.90;;;18.30;99.90;;;18.12;83.68;96307.31;5037518;28;20037;-39
2022/05/24 06:49:07;;;;;;;4.30;1.00;;;18.40;99.90;;;18.13;84.48;96309.88;5038962;28;20033;-40
2022/05/24 06:51:33;;;;;;;2.17;0.90;;;18.30;99.90;;;18.03;85.52;96314.28;5037038;28;20025;-39
2022/05/24 06:53:58;;;;;;;2.63;0.95;;;18.30;99.90;;;17.84;85.39;96316.78;5037009;28;20432;-39
2022/05/24 06:56:24;;;;;;;1.10;0.70;;;18.10;99.90;;;17.65;85.62;96323.63;5029456;28;20289;-39
2022/05/24 07:02:24;;;;;;;1.83;0.98;;;18.00;99.90;;;17.62;87.12;96323.91;5033883;28;20029;-39
2022/05/24 07:04:19;;;;;;;5.45;1.00;;;17.90;99.90;;;17.40;98.97;96369.25;5029134;28;20039;-42
2022/05/24 07:06:45;;;;;;;10.90;2.03;;;17.70;99.90;;;17.00;94.59;96370.63;5033601;28;20033;-42
2022/05/24 07:09:11;;;;;;;12.70;1.55;;;17.40;99.90;;;15.74;97.57;96430.69;5028211;28;20026;-43
2022/05/24 07:11:37;;;;;;;3.20;0.98;;;16.50;99.90;;;14.38;100.00;96415.44;5033695;28;20035;-44
2022/05/24 07:14:03;;;;;;;14.77;1.75;;;15.30;99.90;;;13.53;100.00;96416.56;5029836;28;20033;-41
2022/05/24 07:16:28;;;;;;;5.38;0.65;;;14.40;99.90;;;12.98;100.00;96414.75;5032212;28;20056;-41
2022/05/24 07:18:54;;;;;;;5.40;0.70;;;13.80;99.90;;;12.65;100.00;96418.53;5037074;28;20107;-41
2022/05/24 07:21:20;;;;;;;15.00;1.02;;;13.30;99.90;;;12.34;100.00;96398.38;5036002;28;20306;-38
2022/05/24 07:23:46;;;;;;;11.43;2.15;;;13.00;99.90;;;12.40;100.00;96411.22;5036835;28;20517;-40
2022/05/24 07:26:22;;;;;;;6.18;0.90;;;12.90;99.90;;;12.16;100.00;96385.28;5037611;28;20037;-40
2022/05/24 07:28:48;;;;;;;3.95;0.70;;;12.80;99.90;;;12.18;100.00;96406.34;5036923;28;20032;-40
2022/05/24 07:31:14;;;;;;;9.02;1.10;;;12.70;99.90;;;12.17;100.00;96416.09;5032936;28;20090;-40
2022/05/24 07:33:40;;;;;;;4.25;0.68;;;12.70;99.90;;;12.23;100.00;96431.56;5032937;28;20519;-40
2022/05/24 07:36:07;;;;;;;5.45;1.10;;;12.70;99.90;;;12.26;100.00;96429.69;5029365;28;20681;-40
2022/05/24 07:38:33;;;;;;;8.45;0.90;;;12.70;99.90;;;12.29;100.00;96438.31;5034143;28;20041;-41
2022/05/24 07:46:28;;;;;;;4.10;0.60;;;13.00;99.90;;;12.85;100.00;96443.75;5032765;28;20124;-40
2022/05/24 07:48:54;;;;;;;0.93;0.60;;;13.20;99.90;;;12.94;100.00;96456.44;5040582;28;20021;-41
2022/05/24 07:51:21;;;;;;;2.28;0.70;;;13.30;99.90;;;12.91;100.00;96448.66;5033322;28;20064;-40
2022/05/24 07:53:47;;;;;;;3.08;1.40;;;13.40;99.90;;;13.06;100.00;96451.31;5036940;28;20131;-40
2022/05/24 07:56:15;;;;;;;2.63;0.50;;;13.50;99.90;;;13.15;100.00;96454.25;5032685;28;20159;-40
2022/05/24 07:58:45;;;;;;;2.25;0.75;;;13.60;99.90;;;13.49;100.00;96456.59;5021698;28;20130;-39
2022/05/24 08:01:11;;;;;;;1.13;0.57;;;13.80;99.90;;;13.81;100.00;96458.97;5034517;28;20115;-39
2022/05/24 08:03:41;;;;;;;0.85;0.50;;;14.20;99.90;;;13.91;100.00;96454.78;5016993;28;20037;-39
2022/05/24 08:06:07;;;;;;;3.92;0.60;;;14.40;99.90;;;13.96;100.00;96451.81;5034261;28;20025;-39
2022/05/24 08:08:33;;;;;;;2.00;0.75;;;14.60;99.90;;;14.36;100.00;96467.75;5032198;28;20114;-39
2022/05/24 08:11:00;;;;;;;4.70;0.60;;;14.80;99.90;;;14.62;100.00;96463.34;5034944;28;20966;-40
2022/05/24 08:13:25;;;;;;;4.03;0.63;;;15.10;99.90;;;14.79;100.00;96476.31;5031940;28;20351;-40
2022/05/24 08:15:53;;;;;;;2.10;0.40;;;15.30;99.90;;;15.00;100.00;96479.31;5035496;28;20041;-39
2022/05/24 08:18:21;;;;;;;0.52;0.38;;;15.50;99.90;;;15.10;100.00;96474.19;5036034;28;20502;-39
2022/05/24 08:20:47;;;;;;;4.30;0.60;;;15.60;99.90;;;15.20;100.00;96485.88;5033341;28;20101;-39
2022/05/24 08:23:13;;;;;;;3.17;0.50;;;15.70;99.90;;;15.28;100.00;96478.22;5039301;28;20048;-40
2022/05/24 08:25:39;;;;;;;0.60;0.40;;;15.80;99.90;;;15.16;100.00;96486.19;5033106;28;20037;-39
2022/05/24 08:28:07;;;;;;;1.60;0.50;;;15.80;99.90;;;15.38;100.00;96488.19;5032963;28;20095;-39
2022/05/24 08:30:36;;;;;;;3.80;0.50;;;15.80;99.90;;;15.31;100.00;96497.53;5035607;28;20045;-39
2022/05/24 08:33:04;;;;;;;1.15;0.40;;;15.90;99.90;;;15.50;100.00;96508.56;5032148;28;20028;-39
2022/05/24 08:35:34;;;;;;;0.60;0.32;;;16.00;99.90;;;15.57;100.00;96517.81;5033950;28;20374;-39
2022/05/24 08:38:03;;;;;;;0.63;0.40;;;16.10;99.90;;;15.34;99.55;96507.97;5016421;28;20546;-39
2022/05/24 08:40:29;;;;;;;1.80;0.40;;;16.00;99.90;;;15.43;99.15;96524.13;5032579;28;20496;-39
2022/05/24 08:43:42;;;;;;;1.80;0.50;;;16.00;99.90;;;15.70;100.00;96516.94;5035117;28;20119;-39
2022/05/24 08:49:13;;;;;;;0.90;0.35;;;16.10;99.90;;;15.55;96.18;96527.69;5032984;28;20170;-39
2022/05/24 08:51:54;;;;;;;0.45;0.30;;;16.10;99.90;;;15.72;95.93;96530.97;5038355;28;20029;-39
2022/05/24 08:54:26;;;;;;;2.10;0.50;;;16.10;99.90;;;15.78;92.65;96538.53;5018399;28;20036;-39
2022/05/24 08:57:10;;;;;;;1.67;0.60;;;16.20;99.90;;;15.98;92.95;96539.75;5018962;28;20041;-39
2022/05/24 08:59:45;;;;;;;0.95;0.40;;;16.30;99.90;;;16.15;97.67;96541.19;5028335;28;20025;-39
2022/05/24 09:02:11;;;;;;;1.08;0.50;;;16.50;99.90;;;16.49;92.01;96536.91;5018166;28;20512;-39
2022/05/24 09:04:36;;;;;;;1.15;0.50;;;16.80;99.90;;;16.82;89.37;96527.34;5041222;28;20033;-39
2022/05/24 09:07:17;;;;;;;0.90;0.30;;;17.30;99.90;;;17.04;83.87;96520.41;5030804;28;20258;-39
2022/05/24 09:10:10;;;;;;;1.45;0.43;;;17.50;99.90;;;17.29;84.87;96525.50;5019453;28;20036;-39
2022/05/24 09:12:48;;;;;;;;;;;17.70;99.90;;;17.38;74.79;96525.78;5018826;28;20405;-39
2022/05/24 09:15:57;;;;;;;1.08;0.30;;;17.90;99.90;;;17.55;79.35;96538.63;5013503;28;19927;-39
2022/05/24 09:18:42;;;;;;;1.02;0.60;;;18.00;99.90;;;17.73;75.73;96537.16;5031489;28;20102;-39
2022/05/24 09:21:29;;;;;;;0.95;0.47;;;18.20;99.90;;;17.74;88.85;96536.19;5037616;28;20021;-39
2022/05/24 09:24:41;;;;;;;0.73;0.45;;;18.30;99.90;;;17.91;79.53;96544.72;5043053;28;20029;-39
2022/05/24 09:27:19;;;;;;;0.50;0.40;;;18.40;99.90;;;17.88;75.90;96551.13;5037224;28;20033;-40
2022/05/24 09:30:36;;;;;;;2.05;0.40;;;18.40;99.90;;;17.95;75.34;96543.47;5034546;28;20029;-40
2022/05/24 09:33:41;;;;;;;1.00;0.32;;;18.50;99.90;;;17.92;77.15;96547.22;5038634;28;20699;-40
2022/05/24 09:36:07;;;;;;;0.40;0.40;;;18.50;99.90;;;17.76;76.52;96546.72;4978939;28;20045;-41
2022/05/24 09:38:39;;;;;;;0.20;0.20;;;18.50;99.90;;;17.73;86.34;96558.50;5020930;28;20536;-41
2022/05/24 09:41:19;;;;;;;;;;;18.30;99.90;;;17.52;78.25;96555.69;5036935;28;20463;-41
2022/05/24 09:44:06;;;;;;;1.45;0.30;;;18.30;99.90;;;17.62;75.60;96552.31;5035400;28;19928;-40
2022/05/24 09:46:36;;;;;;;3.28;0.55;;;18.20;99.90;;;17.38;82.19;96547.09;5032476;28;20043;-39
2022/05/24 09:51:41;;;;;;;0.30;0.30;;;17.70;99.90;;;16.85;76.88;96567.09;4996676;28;20053;-48
2022/05/24 09:54:24;;;;;;;0.80;0.30;;;17.50;99.90;;;16.88;81.02;96563.31;5006861;28;20034;-46
2022/05/24 09:57:05;;;;;;;7.03;0.55;;;17.40;99.90;;;17.10;85.60;96563.41;4998595;28;20034;-47
2022/05/24 09:59:33;;;;;;;1.10;0.38;;;17.60;99.90;;;17.42;81.64;96567.19;4999048;28;20117;-46
2022/05/24 10:01:59;;;;;;;1.20;0.40;;;17.90;99.90;;;17.47;64.52;96573.03;5000740;28;20039;-48
2022/05/24 10:04:27;;;;;;;1.00;0.57;;;18.00;99.90;;;17.40;72.38;96579.81;4997479;28;20116;-48
2022/05/24 10:06:59;;;;;;;3.42;0.50;;;18.00;99.90;;;17.15;82.54;96579.00;4997405;28;20565;-48
2022/05/24 10:10:07;;;;;;;0.40;0.40;;;17.70;99.90;;;16.90;76.96;96574.72;5000482;28;20044;-50
2022/05/24 10:13:02;;;;;;;3.15;0.63;;;17.50;99.90;;;16.55;71.18;96562.22;4984985;28;20687;-47
2022/05/24 10:16:04;;;;;;;3.13;0.40;;;17.30;99.90;;;16.52;78.07;96583.72;5002328;28;20065;-45
2022/05/24 10:19:11;;;;;;;2.78;0.50;;;17.10;99.90;;;16.46;87.29;96578.88;4983502;28;20137;-44
2022/05/24 10:21:50;;;;;;;1.95;0.47;;;16.90;99.90;;;16.39;72.13;96589.94;5000640;28;20095;-47
2022/05/24 10:24:35;;;;;;;0.82;0.43;;;16.90;99.90;;;16.41;67.40;96593.34;5002097;28;20100;-47
2022/05/24 10:27:13;;;;;;;0.30;0.30;;;16.90;99.90;;;16.47;66.84;96583.19;4999577;28;20068;-48
2022/05/24 10:30:07;;;;;;;1.05;0.45;;;16.90;99.90;;;16.50;64.88;96588.31;4997674;28;20485;-43
2022/05/24 10:39:04;;;;;;;0.43;0.22;;;17.50;99.90;;;17.37;65.54;96567.53;5000613;28;20044;-46
2022/05/24 10:42:04;;;;;;;1.88;0.50;;;17.80;99.90;;;17.71;65.01;96565.78;4982076;28;20037;-48
2022/05/24 10:44:47;;;;;;;0.52;0.30;;;18.10;99.90;;;17.88;70.42;96567.13;4998800;28;20041;-45
2022/05/24 10:47:59;;;;;;;0.80;0.40;;;18.30;99.90;;;17.88;65.46;96582.28;4984281;28;20434;-45
2022/05/24 10:50:38;;;;;;;0.95;0.52;;;18.30;99.90;;;17.87;58.95;96576.13;4978057;28;20048;-46
2022/05/24 10:53:18;;;;;;;0.95;0.40;;;18.40;99.90;;;17.93;56.22;96564.94;4954716;28;21912;-47
2022/05/24 10:56:02;;;;;;;1.45;0.45;;;18.40;99.90;;;17.85;59.34;96551.34;4996552;28;20030;-44
2022/05/24 10:58:33;;;;;;;0.30;0.30;;;18.50;99.90;;;17.87;60.08;96569.91;4979223;28;20970;-46
2022/05/24 11:01:16;;;;;;;3.92;0.73;;;18.40;99.90;;;17.84;55.49;96575.47;4980506;28;20033;-46
2022/05/24 11:03:49;;;;;;;3.40;0.50;;;18.30;99.90;;;17.76;56.48;96568.06;5006741;28;20032;-45
2022/05/24 11:06:32;;;;;;;0.93;0.43;;;18.20;99.90;;;17.84;58.43;96570.13;4993704;28;20029;-45
2022/05/24 11:09:09;;;;;;;2.65;0.60;;;18.30;99.90;;;18.07;62.06;96585.19;4975038;28;20030;-47
2022/05/24 11:11:51;;;;;;;1.35;0.43;;;18.50;99.90;;;18.19;59.02;96570.00;4999166;28;20033;-47
2022/05/24 11:14:20;;;;;;;;;;;18.60;99.90;;;17.99;58.55;96579.59;5003163;28;20393;-46
2022/05/24 11:16:50;;;;;;;0.90;0.50;;;18.50;99.90;;;17.94;57.86;96579.13;4998879;28;19917;-48